GSIXC EGPH-EGPN

Flight info

Callsign GSIXC
Flight time 0h 16m
Altitude 2500
Route DEPT VIA KELTY VRP DCT
Aircraft DC6A/M-SDFGRY/S

Departure

Time 2026-04-23 17:18
Airport Edinburgh Airport (EGPH)

Arrival

Time 2026-04-23 17:34
Airport Dundee Airport (EGPN)
Time Latitude Longitude Altitude Speed Heading
2026-04-23 17:17 55.99671 -3.38661 1426 ft 177 kts 325°
2026-04-23 17:18 56.00790 -3.39741 1441 ft 167 kts 346°
2026-04-23 17:18 56.01922 -3.40206 1467 ft 167 kts 356°
2026-04-23 17:18 56.03083 -3.40472 1462 ft 168 kts 358°
2026-04-23 17:19 56.04221 -3.40763 1376 ft 162 kts 358°
2026-04-23 17:19 56.05321 -3.40854 1382 ft 153 kts
2026-04-23 17:19 56.06348 -3.40627 1422 ft 144 kts 17°
2026-04-23 17:19 56.07281 -3.40149 1462 ft 137 kts 23°
2026-04-23 17:20 56.08164 -3.39556 1504 ft 134 kts 27°
2026-04-23 17:20 56.09905 -3.38439 1522 ft 135 kts 15°
2026-04-23 17:21 56.11844 -3.38445 1392 ft 144 kts 359°
2026-04-23 17:21 56.12817 -3.38664 1485 ft 138 kts 357°
2026-04-23 17:21 56.14719 -3.39377 1500 ft 144 kts 347°
2026-04-23 17:22 56.15664 -3.40008 1476 ft 145 kts 347°
2026-04-23 17:22 56.17601 -3.40883 1460 ft 143 kts 351°
2026-04-23 17:23 56.19544 -3.41722 1472 ft 142 kts 351°
2026-04-23 17:23 56.20494 -3.42087 1510 ft 138 kts 357°
2026-04-23 17:23 56.22341 -3.41724 1502 ft 131 kts 24°
2026-04-23 17:24 56.23210 -3.41258 1549 ft 130 kts 24°
2026-04-23 17:24 56.24077 -3.40776 1540 ft 132 kts 22°
2026-04-23 17:24 56.25817 -3.39835 1613 ft 130 kts 23°
2026-04-23 17:25 56.27562 -3.38941 1629 ft 130 kts 21°
2026-04-23 17:25 56.28418 -3.38430 1620 ft 131 kts 24°
2026-04-23 17:26 56.30144 -3.37322 1491 ft 131 kts 26°
2026-04-23 17:26 56.31793 -3.35990 1470 ft 139 kts 29°
2026-04-23 17:27 56.33132 -3.33754 1391 ft 132 kts 64°
2026-04-23 17:27 56.33491 -3.32235 1374 ft 130 kts 70°
2026-04-23 17:27 56.33832 -3.30720 1368 ft 133 kts 67°
2026-04-23 17:27 56.34303 -3.29268 1352 ft 134 kts 58°
2026-04-23 17:28 56.34844 -3.27933 1351 ft 129 kts 55°
2026-04-23 17:28 56.35374 -3.26671 1295 ft 129 kts 55°
2026-04-23 17:28 56.35902 -3.25351 1200 ft 130 kts 57°
2026-04-23 17:28 56.36438 -3.24066 1158 ft 127 kts 54°
2026-04-23 17:29 56.36992 -3.22833 1097 ft 126 kts 53°
2026-04-23 17:29 56.37588 -3.21652 999 ft 127 kts 49°
2026-04-23 17:29 56.38790 -3.19448 897 ft 120 kts 49°
2026-04-23 17:30 56.39352 -3.18382 884 ft 115 kts 50°
2026-04-23 17:30 56.40477 -3.16504 896 ft 105 kts 42°
2026-04-23 17:30 56.41041 -3.15704 920 ft 104 kts 43°
2026-04-23 17:31 56.41593 -3.14898 956 ft 101 kts 43°
2026-04-23 17:31 56.42149 -3.14065 969 ft 106 kts 47°
2026-04-23 17:31 56.42700 -3.13138 976 ft 109 kts 48°
2026-04-23 17:31 56.43229 -3.12166 913 ft 106 kts 50°
2026-04-23 17:32 56.43706 -3.11253 804 ft 95 kts 51°
2026-04-23 17:32 56.44128 -3.10334 686 ft 97 kts 56°
2026-04-23 17:32 56.44496 -3.09344 601 ft 93 kts 60°
2026-04-23 17:32 56.44797 -3.08330 516 ft 91 kts 66°
2026-04-23 17:33 56.45037 -3.07300 399 ft 87 kts 72°
2026-04-23 17:33 56.45173 -3.06260 303 ft 85 kts 82°
2026-04-23 17:33 56.45225 -3.05199 199 ft 83 kts 86°
2026-04-23 17:33 56.45244 -3.04208 69 ft 76 kts 88°
2026-04-23 17:34 56.45245 -3.03276 30 ft 71 kts 89°
2026-04-23 17:34 56.45246 -3.02584 20 ft 35 kts 90°
2026-04-23 17:34 56.45242 -3.02025 25 ft 17 kts 91°
2026-04-23 17:35 56.45274 -3.01884 28 ft 14 kts 39°
2026-04-23 17:35 56.45323 -3.01666 25 ft 11 kts 91°
2026-04-23 17:35 56.45338 -3.01600 27 ft 2 kts 14°
2026-04-23 17:36 56.45350 -3.01590 24 ft 2 kts 50°
2026-04-23 17:36 56.45351 -3.01586 24 ft 0 kts 72°